Time;durP1;ratioP1;P1;durP2;ratioP2;P2;SDS_P1;SDS_P2;PMS_P1;PMS_P2;Temp;Humidity;BMP_temperature;BMP_pressure;BME280_temperature;BME280_humidity;BME280_pressure;Samples;Min_cycle;Max_cycle;Signal;HPM_P1;HPM_P2
2023/10/10 00:00:54;;;;;;;4.85;4.22;;;14.90;98.00;;;;;;5005058;28;19910;-90
2023/10/10 00:03:21;;;;;;;6.03;4.03;;;14.90;98.10;;;;;;5021657;28;20030;-89
2023/10/10 00:05:47;;;;;;;5.82;3.47;;;14.90;98.20;;;;;;5022183;28;20029;-91
2023/10/10 00:08:15;;;;;;;4.68;3.20;;;14.90;98.10;;;;;;5019642;28;20073;-89
2023/10/10 00:10:45;;;;;;;4.50;3.35;;;14.90;97.50;;;;;;5020368;28;20018;-89
2023/10/10 00:13:12;;;;;;;5.63;3.17;;;14.80;97.90;;;;;;5027731;28;20033;-89
2023/10/10 00:15:49;;;;;;;7.28;3.70;;;14.70;98.40;;;;;;5019869;28;20057;-88
2023/10/10 00:18:18;;;;;;;5.38;3.58;;;14.60;98.70;;;;;;5003699;28;20048;-90
2023/10/10 00:21:04;;;;;;;3.50;3.00;;;14.60;98.00;;;;;;5024951;28;20022;-90
2023/10/10 00:23:33;;;;;;;7.15;3.83;;;14.60;97.30;;;;;;5003097;28;20111;-89
2023/10/10 00:25:59;;;;;;;4.68;3.40;;;14.60;97.50;;;;;;5023987;28;20026;-90
2023/10/10 00:28:27;;;;;;;4.80;3.60;;;14.60;97.40;;;;;;5005873;28;20048;-88
2023/10/10 00:30:53;;;;;;;4.28;3.88;;;14.50;97.70;;;;;;5031504;28;20043;-89
2023/10/10 00:33:20;;;;;;;3.47;3.20;;;14.40;98.30;;;;;;5002918;28;20045;-90
2023/10/10 00:35:47;;;;;;;6.82;4.15;;;14.30;97.70;;;;;;5020965;28;20104;-89
2023/10/10 00:38:24;;;;;;;;;;;14.30;98.00;;;;;;5021400;28;20026;-90
2023/10/10 00:40:51;;;;;;;5.78;3.63;;;14.30;98.20;;;;;;5007040;28;19905;-90
2023/10/10 00:43:16;;;;;;;6.32;4.38;;;14.20;99.50;;;;;;5010905;28;20026;-89
2023/10/10 00:45:52;;;;;;;4.22;3.75;;;14.20;99.90;;;;;;5009434;28;20030;-89
2023/10/10 00:48:22;;;;;;;6.43;3.35;;;14.10;99.90;;;;;;5034290;28;20444;-90
2023/10/10 00:50:53;;;;;;;4.45;3.33;;;14.10;99.90;;;;;;5000676;28;20034;-88
2023/10/10 00:53:22;;;;;;;4.25;2.67;;;14.00;99.90;;;;;;5020119;28;20511;-89
2023/10/10 00:55:57;;;;;;;4.65;2.13;;;14.10;99.90;;;;;;5025569;28;20381;-90
2023/10/10 00:58:25;;;;;;;3.80;3.38;;;14.10;99.90;;;;;;5018379;28;20014;-89
2023/10/10 01:00:54;;;;;;;5.75;5.18;;;14.10;99.90;;;;;;5000402;28;20033;-90
2023/10/10 01:03:20;;;;;;;5.25;3.67;;;14.10;99.90;;;;;;5017312;28;20026;-90
2023/10/10 01:05:52;;;;;;;4.25;3.25;;;14.10;99.90;;;;;;5018178;28;20032;-89
2023/10/10 01:08:19;;;;;;;6.53;3.63;;;14.00;99.90;;;;;;5017975;28;20025;-88
2023/10/10 01:10:48;;;;;;;5.00;2.92;;;14.00;99.90;;;;;;5018044;28;20495;-88
2023/10/10 01:13:14;;;;;;;4.32;3.72;;;14.10;99.90;;;;;;5002054;28;20022;-89
2023/10/10 01:15:48;;;;;;;4.68;2.75;;;14.10;99.90;;;;;;5017876;28;20026;-89
2023/10/10 01:18:14;;;;;;;4.38;3.88;;;14.00;99.90;;;;;;5016674;28;20037;-90
2023/10/10 01:20:49;;;;;;;5.93;3.67;;;14.00;99.90;;;;;;4999731;28;20072;-88
2023/10/10 01:23:17;;;;;;;4.15;3.50;;;14.00;99.90;;;;;;5017413;28;20037;-88
2023/10/10 01:25:45;;;;;;;4.88;3.80;;;13.90;99.90;;;;;;5016778;28;20022;-89
2023/10/10 01:28:15;;;;;;;3.70;2.88;;;13.90;99.90;;;;;;5017357;28;20018;-89
2023/10/10 01:30:56;;;;;;;5.25;3.78;;;13.90;99.90;;;;;;5030686;28;20112;-89
2023/10/10 01:33:29;;;;;;;4.78;2.80;;;13.90;99.90;;;;;;5029309;28;20017;-89
2023/10/10 01:35:55;;;;;;;3.38;2.03;;;13.80;99.90;;;;;;5003689;28;20392;-89
2023/10/10 01:38:41;;;;;;;5.18;4.05;;;13.80;99.90;;;;;;4991900;28;20049;-89
2023/10/10 01:41:24;;;;;;;3.58;3.28;;;13.80;99.90;;;;;;5019442;28;20030;-89
2023/10/10 01:43:53;;;;;;;5.75;3.55;;;13.80;99.90;;;;;;5017930;28;20076;-88
2023/10/10 01:46:28;;;;;;;6.65;4.13;;;13.80;99.90;;;;;;5028463;28;20032;-87
2023/10/10 01:48:55;;;;;;;5.65;3.10;;;13.70;99.90;;;;;;5029591;28;20058;-89
2023/10/10 01:51:24;;;;;;;4.05;3.35;;;13.70;99.90;;;;;;5027961;28;20022;-89
2023/10/10 01:53:55;;;;;;;5.72;3.65;;;13.80;99.90;;;;;;5005825;28;20032;-89
2023/10/10 01:56:22;;;;;;;3.83;2.55;;;13.70;99.90;;;;;;5017909;28;20391;-89
2023/10/10 01:58:53;;;;;;;4.40;3.65;;;13.70;99.90;;;;;;5016725;28;20081;-91
2023/10/10 02:01:20;;;;;;;4.82;3.25;;;13.70;99.90;;;;;;5024826;28;20108;-89
2023/10/10 02:03:47;;;;;;;3.95;2.75;;;13.70;99.90;;;;;;5024371;28;20046;-92
2023/10/10 02:06:24;;;;;;;4.35;2.83;;;13.70;99.90;;;;;;5019596;28;20516;-89
2023/10/10 02:08:51;;;;;;;5.25;3.55;;;13.70;99.90;;;;;;5017871;28;20484;-88
2023/10/10 02:11:21;;;;;;;5.28;4.00;;;13.60;99.90;;;;;;5016695;28;20022;-89
2023/10/10 02:13:47;;;;;;;3.53;2.80;;;13.50;99.90;;;;;;4998181;28;20026;-90
2023/10/10 02:16:17;;;;;;;6.05;4.47;;;13.60;99.90;;;;;;5017004;28;20057;-88
2023/10/10 02:18:51;;;;;;;5.13;2.60;;;13.60;99.90;;;;;;5015408;28;20408;-90
2023/10/10 02:21:31;;;;;;;4.97;3.55;;;13.60;99.90;;;;;;5022501;28;20029;-89
2023/10/10 02:26:44;;;;;;;3.70;3.10;;;13.40;99.90;;;;;;5008467;28;20089;-90
2023/10/10 02:32:24;;;;;;;5.85;3.90;;;13.30;99.90;;;;;;5019683;28;20076;-89
2023/10/10 02:34:43;;;;;;;4.78;3.70;;;13.20;99.90;;;;;;5012874;28;20042;-89
2023/10/10 02:40:07;;;;;;;4.07;3.72;;;13.20;99.90;;;;;;5020657;28;20026;-88
2023/10/10 02:42:33;;;;;;;3.22;2.80;;;13.10;99.90;;;;;;5013551;28;20029;-89
2023/10/10 02:44:59;;;;;;;4.22;3.40;;;13.00;99.90;;;;;;5024496;28;20037;-89
2023/10/10 02:47:32;;;;;;;5.47;3.80;;;13.00;99.90;;;;;;5020734;28;20100;-90
2023/10/10 02:50:14;;;;;;;4.57;3.80;;;13.00;99.90;;;;;;5021019;28;20056;-89
2023/10/10 02:52:45;;;;;;;6.80;3.53;;;13.10;99.90;;;;;;5018901;28;20440;-89
2023/10/10 02:55:16;;;;;;;3.40;2.92;;;13.10;99.90;;;;;;5021302;28;20032;-90
2023/10/10 02:57:42;;;;;;;4.05;3.58;;;13.20;99.90;;;;;;5023108;28;20036;-90
2023/10/10 03:02:55;;;;;;;4.25;3.78;;;13.20;99.90;;;;;;5020320;28;20029;-89
2023/10/10 03:05:40;;;;;;;5.65;4.35;;;13.10;99.90;;;;;;5024317;28;20025;-89
2023/10/10 03:08:14;;;;;;;3.17;2.88;;;13.20;99.90;;;;;;5020288;28;20022;-90
2023/10/10 03:10:45;;;;;;;3.85;3.40;;;13.20;99.90;;;;;;5002831;28;20026;-89
2023/10/10 03:13:47;;;;;;;4.30;3.90;;;13.20;99.90;;;;;;5020688;28;20057;-88
2023/10/10 03:29:20;;;;;;;3.90;3.55;;;13.10;99.90;;;;;;5020163;28;20022;-88
2023/10/10 03:32:18;;;;;;;4.47;4.10;;;13.20;99.90;;;;;;5021143;28;20022;-89
2023/10/10 03:37:39;;;;;;;3.92;3.00;;;13.20;99.90;;;;;;5003686;28;20034;-90
2023/10/10 03:40:26;;;;;;;4.30;2.45;;;13.20;99.90;;;;;;5019235;28;20396;-90
2023/10/10 05:24:51;;;;;;;6.93;4.70;;;13.10;99.90;;;;;;5021090;28;20084;-91
2023/10/10 05:27:29;;;;;;;7.80;4.65;;;13.00;99.90;;;;;;5000901;28;20022;-91
2023/10/10 05:30:04;;;;;;;5.07;3.55;;;13.00;99.90;;;;;;5019879;28;20079;-93
2023/10/10 05:32:32;;;;;;;8.07;3.83;;;12.90;99.90;;;;;;5013672;28;20053;-92
2023/10/10 05:35:10;;;;;;;4.68;4.05;;;12.90;99.90;;;;;;5000647;28;20088;-91
2023/10/10 05:37:36;;;;;;;4.68;3.97;;;12.90;99.90;;;;;;5018275;28;20022;-91
2023/10/10 05:40:06;;;;;;;5.28;3.90;;;12.90;99.90;;;;;;5001597;28;20443;-91
2023/10/10 05:42:34;;;;;;;5.78;4.03;;;12.90;99.90;;;;;;5007085;28;20050;-93
2023/10/10 05:45:06;;;;;;;4.35;3.88;;;12.70;99.90;;;;;;5017800;28;20100;-91
2023/10/10 05:47:42;;;;;;;5.63;3.63;;;12.70;99.90;;;;;;5011016;28;20033;-92
2023/10/10 05:50:10;;;;;;;4.18;3.35;;;12.70;99.90;;;;;;4993775;28;20030;-91
2023/10/10 05:52:38;;;;;;;4.78;4.00;;;12.80;99.90;;;;;;5010203;28;20022;-90
2023/10/10 05:55:53;;;;;;;;;;;;;;;;;;;;;
2023/10/10 05:58:20;;;;;;;5.13;4.22;;;12.80;99.90;;;;;;4999273;28;20595;-91
2023/10/10 06:04:30;;;;;;;8.50;4.82;;;12.80;99.90;;;;;;4997352;28;20066;-91
2023/10/10 06:07:08;;;;;;;6.63;5.05;;;12.60;99.90;;;;;;5011999;23;20051;-91
2023/10/10 06:09:51;;;;;;;6.22;5.20;;;12.60;99.90;;;;;;4997014;28;20042;-91
2023/10/10 06:16:24;;;;;;;;;;;;;;;;;;;;;
2023/10/10 06:19:20;;;;;;;4.85;3.45;;;12.60;99.90;;;;;;4975549;28;20620;-90
2023/10/10 06:22:02;;;;;;;8.02;4.13;;;12.50;99.90;;;;;;4973668;28;20066;-91
2023/10/10 06:24:28;;;;;;;5.00;3.72;;;12.50;99.90;;;;;;4972332;28;20047;-92
2023/10/10 06:27:03;;;;;;;5.03;4.47;;;12.70;99.90;;;;;;4972329;28;20054;-93
2023/10/10 06:29:34;;;;;;;5.05;3.42;;;12.70;99.90;;;;;;4971528;28;20413;-91
2023/10/10 06:32:00;;;;;;;5.25;4.22;;;12.70;99.90;;;;;;4977246;28;20544;-92
2023/10/10 06:34:34;;;;;;;4.57;4.18;;;12.80;99.90;;;;;;4977647;28;20030;-92
2023/10/10 06:37:07;;;;;;;8.13;5.82;;;12.80;99.90;;;;;;4960444;28;20037;-91
2023/10/10 06:39:34;;;;;;;6.63;4.68;;;12.90;99.90;;;;;;4960775;28;20034;-93
2023/10/10 06:42:03;;;;;;;5.85;4.63;;;13.00;99.90;;;;;;4960479;28;20023;-92
2023/10/10 06:44:32;;;;;;;6.35;4.15;;;13.00;99.90;;;;;;4971311;28;20069;-92
2023/10/10 06:47:00;;;;;;;6.88;5.00;;;13.10;99.90;;;;;;4960551;28;20031;-93
2023/10/10 06:49:26;;;;;;;6.85;4.05;;;13.20;99.90;;;;;;4979279;28;20022;-92
2023/10/10 06:51:55;;;;;;;5.43;4.95;;;13.20;99.90;;;;;;4961187;28;20026;-93
2023/10/10 06:54:34;;;;;;;6.72;4.13;;;13.30;99.90;;;;;;4961548;28;20027;-92
2023/10/10 06:59:29;;;;;;;6.60;4.95;;;13.40;99.90;;;;;;4977529;28;20042;-93
2023/10/10 07:02:13;;;;;;;8.15;4.38;;;13.40;99.90;;;;;;4975963;28;20114;-92
2023/10/10 07:04:39;;;;;;;5.72;4.10;;;13.50;99.90;;;;;;4970675;28;20019;-93
2023/10/10 07:07:08;;;;;;;6.40;4.57;;;13.50;99.90;;;;;;4976711;28;20031;-92
2023/10/10 07:09:36;;;;;;;4.78;3.78;;;13.60;99.90;;;;;;4979386;28;20029;-91
2023/10/10 07:12:16;;;;;;;6.30;4.90;;;13.50;99.90;;;;;;4982827;28;20077;-92
2023/10/10 07:14:54;;;;;;;7.05;4.30;;;13.60;99.90;;;;;;4988554;28;20023;-91
2023/10/10 07:17:26;;;;;;;4.10;3.70;;;13.70;99.90;;;;;;4967962;28;20038;-91
2023/10/10 07:22:34;;;;;;;4.28;3.80;;;13.80;99.90;;;;;;4999666;28;20047;-93
2023/10/10 07:25:08;;;;;;;6.40;3.95;;;13.90;99.90;;;;;;4999864;28;20042;-92
2023/10/10 07:27:39;;;;;;;6.85;4.70;;;14.00;99.90;;;;;;4972358;28;20015;-92
2023/10/10 07:30:19;;;;;;;4.72;3.72;;;14.10;99.90;;;;;;4983227;28;20031;-92
2023/10/10 07:32:50;;;;;;;4.80;3.97;;;14.10;99.90;;;;;;4981338;28;20034;-92
2023/10/10 07:35:17;;;;;;;6.50;4.10;;;14.20;99.90;;;;;;4973300;28;20037;-92
2023/10/10 07:37:43;;;;;;;4.65;4.07;;;14.30;99.90;;;;;;4978383;28;20011;-92
2023/10/10 07:42:49;;;;;;;6.03;5.13;;;14.40;99.90;;;;;;5000437;28;20074;-92
2023/10/10 07:45:18;;;;;;;6.47;4.43;;;14.50;99.90;;;;;;4971769;28;20066;-92
2023/10/10 07:48:46;;;;;;;9.75;6.68;;;14.50;99.90;;;;;;4987278;28;20123;-92
2023/10/10 07:50:49;;;;;;;6.50;4.40;;;14.60;99.90;;;;;;4970247;28;20494;-92
2023/10/10 07:53:17;;;;;;;5.75;4.25;;;14.70;99.90;;;;;;4980741;28;20037;-92
2023/10/10 07:58:27;;;;;;;8.80;4.93;;;14.90;99.90;;;;;;4980106;28;20042;-91
2023/10/10 08:01:07;;;;;;;6.88;4.72;;;15.10;99.60;;;;;;4981028;28;20019;-91
2023/10/10 08:03:33;;;;;;;6.65;5.40;;;15.00;99.00;;;;;;4974303;28;20050;-93
2023/10/10 08:05:59;;;;;;;6.80;5.22;;;15.10;99.60;;;;;;4978463;28;20031;-91
2023/10/10 08:08:26;;;;;;;7.35;5.13;;;15.20;98.70;;;;;;4979623;28;20081;-91
2023/10/10 08:10:52;;;;;;;8.35;4.45;;;15.30;99.10;;;;;;4982844;28;20123;-92
2023/10/10 08:13:20;;;;;;;6.32;4.88;;;15.40;98.20;;;;;;4981854;28;20491;-93
2023/10/10 08:18:49;;;;;;;7.63;4.85;;;15.60;97.40;;;;;;4986435;28;20030;-92
2023/10/10 08:21:15;;;;;;;6.45;4.70;;;15.70;97.40;;;;;;4981154;28;20022;-94
2023/10/10 08:23:46;;;;;;;6.18;4.30;;;15.90;96.90;;;;;;4970995;28;20008;-92
2023/10/10 08:26:18;;;;;;;10.43;5.03;;;16.00;95.30;;;;;;4965010;28;20023;-92
2023/10/10 08:28:53;;;;;;;5.20;4.45;;;16.10;95.30;;;;;;4971182;28;20043;-92
2023/10/10 08:31:19;;;;;;;7.00;4.47;;;16.20;93.70;;;;;;4981549;28;20043;-93
2023/10/10 08:33:48;;;;;;;7.43;3.78;;;16.30;92.30;;;;;;4964839;28;20026;-93
2023/10/10 08:36:23;;;;;;;6.53;4.85;;;16.40;91.70;;;;;;4980798;28;20026;-92
2023/10/10 08:38:56;;;;;;;7.25;5.38;;;16.50;91.80;;;;;;4964072;28;20033;-90
2023/10/10 08:41:27;;;;;;;7.70;4.70;;;16.60;91.40;;;;;;4967482;28;20026;-91
2023/10/10 08:44:01;;;;;;;7.50;4.78;;;16.80;90.20;;;;;;4983606;28;20054;-92
2023/10/10 08:46:31;;;;;;;6.82;5.78;;;16.90;89.80;;;;;;4979751;28;20030;-93
2023/10/10 08:49:04;;;;;;;5.95;4.95;;;16.90;88.40;;;;;;4980715;28;20010;-92
2023/10/10 08:51:34;;;;;;;8.13;4.32;;;17.00;87.70;;;;;;4965408;28;20014;-92
2023/10/10 08:54:10;;;;;;;9.63;5.97;;;17.20;87.70;;;;;;4978381;28;20107;-92
2023/10/10 08:57:04;;;;;;;7.65;5.07;;;17.30;86.20;;;;;;4972761;28;20019;-92
2023/10/10 08:59:31;;;;;;;6.47;4.93;;;17.50;85.70;;;;;;4976218;28;20021;-92
2023/10/10 09:02:12;;;;;;;5.45;4.60;;;17.60;84.30;;;;;;4986169;28;20030;-92
2023/10/10 09:04:38;;;;;;;7.65;3.80;;;17.80;84.30;;;;;;4966935;28;20450;-92
2023/10/10 09:07:19;;;;;;;10.82;4.25;;;17.90;83.70;;;;;;4984791;28;20670;-92
2023/10/10 09:09:54;;;;;;;6.75;4.50;;;18.00;82.80;;;;;;4956063;28;20045;-91
2023/10/10 09:12:20;;;;;;;8.02;4.93;;;18.00;84.00;;;;;;4961668;28;20034;-91
2023/10/10 09:14:50;;;;;;;5.15;4.65;;;18.10;84.10;;;;;;4973053;28;20023;-92
2023/10/10 09:17:35;;;;;;;7.03;5.30;;;18.30;83.10;;;;;;4979107;28;20027;-91
2023/10/10 09:22:51;;;;;;;6.63;4.47;;;18.40;82.30;;;;;;4978151;28;20033;-90
2023/10/10 09:25:26;;;;;;;5.63;5.00;;;18.40;82.00;;;;;;4980356;28;20027;-90
2023/10/10 09:28:08;;;;;;;7.63;5.00;;;18.50;82.50;;;;;;4982519;28;20050;-91
2023/10/10 09:30:49;;;;;;;8.98;5.00;;;18.80;83.80;;;;;;4983117;28;20237;-92
2023/10/10 09:33:27;;;;;;;8.80;4.93;;;18.90;81.50;;;;;;4999399;28;20023;-90
2023/10/10 09:36:09;;;;;;;9.85;5.63;;;19.00;80.70;;;;;;4980824;28;20015;-91
2023/10/10 09:38:48;;;;;;;10.18;5.07;;;19.20;80.40;;;;;;4989868;28;20103;-90
2023/10/10 09:49:46;;;;;;;9.43;5.00;;;19.80;78.20;;;;;;4971295;28;20023;-91
2023/10/10 09:52:50;;;;;;;10.55;5.78;;;19.90;78.30;;;;;;4959480;28;20023;-92
2023/10/10 09:55:42;;;;;;;9.40;5.15;;;20.10;77.40;;;;;;4979324;28;20529;-92
2023/10/10 09:58:25;;;;;;;8.60;5.13;;;20.30;77.60;;;;;;4955004;28;20082;-91
2023/10/10 10:04:28;;;;;;;9.68;4.43;;;20.40;76.10;;;;;;4926873;29;20051;-93
2023/10/10 10:07:25;;;;;;;5.60;4.80;;;20.60;75.60;;;;;;4980152;28;20053;-90
2023/10/10 10:10:09;;;;;;;6.45;4.65;;;20.60;74.80;;;;;;4957346;28;20031;-91
2023/10/10 10:17:31;;;;;;;12.00;4.85;;;20.80;72.30;;;;;;5019667;23;20065;-90
2023/10/10 10:20:24;;;;;;;7.95;5.68;;;21.30;73.40;;;;;;4907834;29;20032;-90
2023/10/10 10:23:13;;;;;;;7.50;3.65;;;21.50;71.00;;;;;;4939549;28;20513;-90
2023/10/10 10:26:08;;;;;;;8.88;4.93;;;21.70;70.90;;;;;;4977310;28;20038;-92
2023/10/10 10:29:14;;;;;;;8.57;4.97;;;21.80;70.50;;;;;;4995492;28;20041;-91
2023/10/10 10:32:34;;;;;;;4.93;2.92;;;22.00;69.60;;;;;;4971570;28;20431;-91
2023/10/10 10:38:31;;;;;;;6.38;4.05;;;21.90;69.50;;;;;;4914705;29;20044;-91
2023/10/10 10:41:17;;;;;;;8.88;4.75;;;22.00;69.50;;;;;;4901064;29;20066;-91
2023/10/10 10:44:09;;;;;;;8.65;5.10;;;22.20;68.20;;;;;;4921956;29;20039;-91
2023/10/10 10:47:21;;;;;;;6.38;4.60;;;22.30;68.00;;;;;;4914463;29;20108;-90
2023/10/10 10:50:17;;;;;;;7.13;4.22;;;22.60;67.80;;;;;;4919125;29;20055;-91
2023/10/10 10:52:57;;;;;;;7.70;4.00;;;22.50;65.70;;;;;;4958544;28;20034;-91
2023/10/10 10:55:32;;;;;;;6.15;2.55;;;22.60;64.90;;;;;;4985122;28;20548;-91
2023/10/10 11:02:10;;;;;;;;;;;;;;;;;;;;;
2023/10/10 11:04:55;;;;;;;5.65;4.53;;;23.10;64.90;;;;;;4996314;28;20027;-91
2023/10/10 11:10:36;;;;;;;10.15;4.40;;;23.50;61.10;;;;;;4978454;28;20037;-91
2023/10/10 11:13:07;;;;;;;7.90;5.30;;;23.50;62.50;;;;;;4981226;28;20022;-90
2023/10/10 11:15:53;;;;;;;8.35;4.32;;;23.70;60.30;;;;;;4979995;28;20038;-91
2023/10/10 11:18:34;;;;;;;11.05;5.05;;;23.70;60.20;;;;;;4974504;28;20045;-92
2023/10/10 11:21:11;;;;;;;6.93;4.35;;;23.60;60.40;;;;;;4977971;28;20032;-90
2023/10/10 11:23:52;;;;;;;11.63;2.97;;;23.80;61.50;;;;;;4976292;28;20452;-91
2023/10/10 11:26:48;;;;;;;7.38;3.22;;;23.90;59.80;;;;;;4986894;28;20734;-91
2023/10/10 11:29:29;;;;;;;6.72;4.43;;;24.00;58.10;;;;;;4998712;28;20026;-91
2023/10/10 11:32:23;;;;;;;9.48;4.32;;;23.80;56.50;;;;;;4995921;28;20113;-91
2023/10/10 11:36:01;;;;;;;7.65;3.90;;;23.90;58.10;;;;;;4981527;28;20037;-91
2023/10/10 11:38:35;;;;;;;10.15;3.53;;;23.80;55.80;;;;;;4999149;28;20349;-92
2023/10/10 11:41:45;;;;;;;6.30;3.58;;;23.70;55.90;;;;;;4976862;28;20042;-93
2023/10/10 11:44:17;;;;;;;5.90;4.03;;;23.90;55.60;;;;;;4969063;28;20038;-93
2023/10/10 11:46:45;;;;;;;9.38;4.70;;;23.90;54.30;;;;;;4981545;28;20033;-87
2023/10/10 11:49:48;;;;;;;;;;;;;;;;;;;;;
2023/10/10 11:52:29;;;;;;;6.80;3.17;;;24.00;53.60;;;;;;4991239;28;20094;-91
2023/10/10 11:55:00;;;;;;;7.20;4.43;;;24.30;54.00;;;;;;4982381;28;20097;-91
2023/10/10 11:57:49;;;;;;;5.45;3.75;;;24.60;53.40;;;;;;4986103;28;20133;-93
2023/10/10 12:00:44;;;;;;;9.63;3.35;;;24.60;52.80;;;;;;4919174;29;20574;-88
2023/10/10 12:03:12;;;;;;;8.95;3.38;;;24.60;54.30;;;;;;4900605;29;20036;-90
2023/10/10 12:05:49;;;;;;;7.35;3.42;;;24.70;52.70;;;;;;4963339;28;20034;-91
2023/10/10 12:08:22;;;;;;;6.80;3.90;;;25.00;51.80;;;;;;4983002;28;20038;-90
2023/10/10 12:10:52;;;;;;;4.97;3.08;;;25.30;51.30;;;;;;4980270;28;20035;-92
2023/10/10 12:16:14;;;;;;;6.25;3.55;;;25.00;51.60;;;;;;5002439;28;20067;-91
2023/10/10 12:18:49;;;;;;;6.22;3.83;;;25.00;50.60;;;;;;4983762;28;20049;-90
2023/10/10 12:21:38;;;;;;;7.63;3.58;;;24.60;50.90;;;;;;4981750;28;20026;-91
2023/10/10 12:24:04;;;;;;;9.50;4.20;;;24.80;51.70;;;;;;4982941;28;20026;-88
2023/10/10 12:26:30;;;;;;;8.45;4.82;;;24.70;50.50;;;;;;4980356;28;20033;-89
2023/10/10 12:28:56;;;;;;;6.35;3.97;;;24.80;50.30;;;;;;5001490;28;20033;-91
2023/10/10 12:31:24;;;;;;;7.75;3.97;;;24.90;48.90;;;;;;5004170;28;20021;-89
2023/10/10 12:33:53;;;;;;;6.40;3.88;;;25.00;49.60;;;;;;5000614;28;20459;-90
2023/10/10 12:36:28;;;;;;;9.27;3.55;;;25.40;48.90;;;;;;4981089;28;20062;-89
2023/10/10 12:38:55;;;;;;;11.85;3.38;;;25.00;49.50;;;;;;4997994;28;20027;-88
2023/10/10 12:41:21;;;;;;;7.55;4.28;;;24.90;51.00;;;;;;4979798;28;20038;-90
2023/10/10 12:43:50;;;;;;;9.50;4.25;;;25.00;49.80;;;;;;4996802;28;20022;-91
2023/10/10 12:46:21;;;;;;;8.75;4.55;;;24.90;50.40;;;;;;4976484;28;20037;-90
2023/10/10 12:48:51;;;;;;;6.85;4.18;;;24.90;51.20;;;;;;4979567;28;20030;-90
2023/10/10 12:51:19;;;;;;;7.20;3.47;;;25.20;50.80;;;;;;4996594;28;20101;-90
2023/10/10 12:54:04;;;;;;;9.20;5.07;;;25.60;49.90;;;;;;4988794;28;20030;-90
2023/10/10 12:56:30;;;;;;;10.07;4.72;;;25.50;51.10;;;;;;4990505;28;20030;-90
2023/10/10 12:59:07;;;;;;;10.75;4.47;;;25.90;49.40;;;;;;4981331;28;20846;-90
2023/10/10 13:01:35;;;;;;;7.70;4.07;;;26.10;49.70;;;;;;5001355;28;20026;-90
2023/10/10 13:04:29;;;;;;;7.10;3.25;;;25.80;47.10;;;;;;4990202;28;20061;-90
2023/10/10 13:07:06;;;;;;;10.27;2.72;;;26.60;45.00;;;;;;4933695;28;20589;-91
2023/10/10 13:09:42;;;;;;;8.73;2.75;;;27.20;44.80;;;;;;4994171;28;20045;-90
2023/10/10 13:12:18;;;;;;;7.43;3.65;;;27.30;41.20;;;;;;4976602;28;20408;-90
2023/10/10 13:14:50;;;;;;;5.95;2.70;;;27.50;38.70;;;;;;4983898;28;20496;-90
2023/10/10 13:17:29;;;;;;;6.93;3.45;;;27.50;39.30;;;;;;4982002;28;20041;-90
2023/10/10 13:20:04;;;;;;;6.13;2.90;;;26.40;40.00;;;;;;5000598;28;20054;-90
2023/10/10 13:22:36;;;;;;;7.32;3.42;;;26.80;39.80;;;;;;4998213;28;20054;-91
2023/10/10 13:25:09;;;;;;;6.88;3.60;;;27.20;39.80;;;;;;4997240;28;20054;-89
2023/10/10 13:27:37;;;;;;;10.20;4.25;;;27.80;37.70;;;;;;4983294;28;20100;-92
2023/10/10 13:30:13;;;;;;;8.48;4.13;;;27.70;37.50;;;;;;4985000;28;20113;-91
2023/10/10 13:33:04;;;;;;;7.47;3.10;;;27.90;36.60;;;;;;4996972;28;20030;-90
2023/10/10 13:35:30;;;;;;;7.05;2.70;;;28.00;37.70;;;;;;4977203;28;20058;-90
2023/10/10 13:37:55;;;;;;;6.35;4.03;;;28.60;35.10;;;;;;4999073;28;20230;-90
2023/10/10 13:40:36;;;;;;;5.57;3.75;;;28.00;35.80;;;;;;4992568;28;20038;-90
2023/10/10 13:43:08;;;;;;;8.40;3.75;;;27.80;36.20;;;;;;4999705;28;20038;-91
2023/10/10 13:45:37;;;;;;;4.80;3.13;;;28.00;35.60;;;;;;4993131;28;20030;-90
2023/10/10 13:48:09;;;;;;;5.10;3.20;;;28.10;34.80;;;;;;4983837;28;20022;-91
2023/10/10 13:50:46;;;;;;;5.50;3.40;;;28.30;34.60;;;;;;4998435;28;20018;-91
2023/10/10 13:53:20;;;;;;;6.55;2.90;;;28.50;34.60;;;;;;5003854;28;20073;-90
2023/10/10 13:55:51;;;;;;;7.13;3.63;;;28.30;35.10;;;;;;4985666;28;20054;-91
2023/10/10 13:58:17;;;;;;;6.15;3.55;;;27.80;35.40;;;;;;4983083;28;20040;-90
2023/10/10 14:00:52;;;;;;;6.22;3.00;;;27.90;35.80;;;;;;5002254;28;20014;-90
2023/10/10 14:04:26;;;;;;;5.20;2.55;;;28.20;36.10;;;;;;4980606;28;20572;-90
2023/10/10 14:06:53;;;;;;;4.28;2.67;;;28.30;35.30;;;;;;4995216;23;20175;-89
2023/10/10 14:09:25;;;;;;;7.55;3.15;;;28.20;34.70;;;;;;4978162;28;20028;-90
2023/10/10 14:11:51;;;;;;;6.03;2.75;;;27.80;36.30;;;;;;4980282;28;20015;-91
2023/10/10 14:14:18;;;;;;;4.43;3.63;;;28.00;34.80;;;;;;4982644;28;20046;-90
2023/10/10 14:16:44;;;;;;;8.10;3.20;;;27.60;35.00;;;;;;4979150;28;20157;-90
2023/10/10 14:19:10;;;;;;;6.07;4.15;;;27.90;34.50;;;;;;4975344;28;20023;-90
2023/10/10 14:21:38;;;;;;;7.00;3.25;;;27.70;35.00;;;;;;4980198;28;20706;-90
2023/10/10 14:24:06;;;;;;;6.40;3.58;;;27.80;35.90;;;;;;4982436;28;20031;-91
2023/10/10 14:26:34;;;;;;;5.38;3.58;;;28.10;35.00;;;;;;4989797;28;20030;-90
2023/10/10 14:29:04;;;;;;;6.35;3.80;;;28.20;35.70;;;;;;4981569;28;20004;-92
2023/10/10 14:31:33;;;;;;;7.80;3.40;;;28.00;36.20;;;;;;4981673;28;20019;-92
2023/10/10 14:34:00;;;;;;;5.80;3.20;;;28.20;35.20;;;;;;4983158;28;20042;-92
2023/10/10 14:36:27;;;;;;;7.13;2.92;;;27.80;35.60;;;;;;4983964;28;20042;-92
2023/10/10 14:38:53;;;;;;;;;;;27.90;36.20;;;;;;4983819;28;20091;-94
2023/10/10 14:41:23;;;;;;;6.70;2.67;;;28.40;35.90;;;;;;4979091;28;19918;-92
2023/10/10 14:43:51;;;;;;;5.88;3.30;;;28.80;34.70;;;;;;4984324;28;20031;-94
2023/10/10 14:46:27;;;;;;;6.15;2.95;;;28.60;34.70;;;;;;4963978;28;20091;-92
2023/10/10 14:49:06;;;;;;;6.38;2.90;;;28.70;35.40;;;;;;4968023;28;20023;-92
2023/10/10 14:51:34;;;;;;;6.40;3.40;;;28.50;35.50;;;;;;4980014;28;20019;-92
2023/10/10 14:54:12;;;;;;;6.07;2.92;;;28.50;36.20;;;;;;4984185;28;20014;-91
2023/10/10 14:56:45;;;;;;;6.70;4.10;;;28.70;35.80;;;;;;4978655;28;20288;-92
2023/10/10 14:59:17;;;;;;;;;;;29.00;35.90;;;;;;4977532;28;20153;-92
2023/10/10 15:01:50;;;;;;;7.85;3.70;;;29.10;35.60;;;;;;4976062;28;19918;-91
2023/10/10 15:04:17;;;;;;;6.00;2.70;;;29.50;34.90;;;;;;4960224;28;20034;-92
2023/10/10 15:06:44;;;;;;;6.30;3.67;;;29.40;35.00;;;;;;4975641;28;20050;-92
2023/10/10 15:09:13;;;;;;;;;;;29.10;35.10;;;;;;4971434;28;20035;-91
2023/10/10 15:11:43;;;;;;;5.18;3.58;;;29.00;35.30;;;;;;4952564;28;19912;-91
2023/10/10 15:14:12;;;;;;;5.97;3.95;;;29.10;35.40;;;;;;4976038;28;20024;-92
2023/10/10 15:16:39;;;;;;;6.20;3.15;;;29.10;34.90;;;;;;4957781;28;20035;-93
2023/10/10 15:19:08;;;;;;;8.50;3.55;;;29.10;35.20;;;;;;4967643;28;20383;-92
2023/10/10 15:21:35;;;;;;;9.48;4.03;;;29.10;35.20;;;;;;4979790;28;20023;-91
2023/10/10 15:24:15;;;;;;;6.15;2.58;;;29.10;35.30;;;;;;4981844;28;20035;-94
2023/10/10 15:26:45;;;;;;;9.43;3.58;;;29.00;35.20;;;;;;4983067;28;20047;-92
2023/10/10 15:29:14;;;;;;;4.72;3.17;;;28.80;35.60;;;;;;4983694;28;20007;-91
2023/10/10 15:31:40;;;;;;;7.57;2.90;;;28.50;34.90;;;;;;4963605;28;20227;-91
2023/10/10 15:34:11;;;;;;;9.10;3.20;;;27.90;35.60;;;;;;4980606;28;20046;-93
2023/10/10 15:36:37;;;;;;;7.75;3.75;;;27.80;36.60;;;;;;4977425;28;20022;-92
2023/10/10 15:39:09;;;;;;;7.22;3.72;;;27.70;36.80;;;;;;4985627;28;20043;-91
2023/10/10 15:41:36;;;;;;;6.38;3.72;;;27.40;37.20;;;;;;4983158;28;20022;-93
2023/10/10 15:44:02;;;;;;;7.88;3.28;;;27.10;38.10;;;;;;4981502;28;20221;-91
2023/10/10 15:46:33;;;;;;;5.90;3.50;;;26.90;38.60;;;;;;4984125;28;20110;-90
2023/10/10 15:49:00;;;;;;;7.30;3.65;;;26.50;39.60;;;;;;4985497;28;20026;-93
2023/10/10 15:51:27;;;;;;;5.22;3.55;;;26.00;40.50;;;;;;4985886;28;20030;-92
2023/10/10 15:53:56;;;;;;;5.10;3.13;;;25.70;40.00;;;;;;4967002;28;20026;-90
2023/10/10 15:56:28;;;;;;;8.95;3.53;;;25.40;41.00;;;;;;4985471;28;20035;-93
2023/10/10 15:58:55;;;;;;;9.02;3.85;;;25.20;41.20;;;;;;4978593;28;20033;-87
2023/10/10 16:01:22;;;;;;;6.47;3.88;;;25.10;41.40;;;;;;4975514;28;20102;-91
2023/10/10 16:03:52;;;;;;;7.00;3.95;;;25.00;41.80;;;;;;4975614;28;20034;-92
2023/10/10 16:06:19;;;;;;;8.18;4.97;;;24.80;42.10;;;;;;4987153;28;20019;-92
2023/10/10 16:08:53;;;;;;;7.45;3.78;;;24.70;42.00;;;;;;4979138;28;20082;-91
2023/10/10 16:11:19;;;;;;;8.85;4.18;;;24.60;46.50;;;;;;4991714;28;20023;-91
2023/10/10 16:13:46;;;;;;;8.38;3.40;;;24.40;50.90;;;;;;4993795;28;20414;-92
2023/10/10 16:16:18;;;;;;;8.45;4.03;;;24.30;50.10;;;;;;4965784;28;20007;-91
2023/10/10 16:18:45;;;;;;;8.77;4.35;;;24.20;50.60;;;;;;4988831;28;20027;-91
2023/10/10 16:21:13;;;;;;;13.27;4.53;;;24.20;47.80;;;;;;4988561;28;20026;-90
2023/10/10 16:23:43;;;;;;;8.70;4.07;;;24.00;54.40;;;;;;4987883;28;20054;-92
2023/10/10 16:26:10;;;;;;;4.50;3.33;;;23.80;53.00;;;;;;4991067;28;20143;-90
2023/10/10 16:28:36;;;;;;;9.25;4.80;;;23.60;54.90;;;;;;4988314;28;20007;-90
2023/10/10 16:31:10;;;;;;;6.40;3.30;;;23.40;57.50;;;;;;4987659;28;20744;-90